Thunder radar more information blitzortung!


Radar de pluja more information rain snow radar


Visita la nostra xarxa de llocs de meteo:

Template documentation
and downloads

And another site



No particular awareness of the weather is required.    There are no Weather-warnings

Pagina Historial Weather Underground text

Diari Resum May 15, 2016 Unitats:  Mètric    Imperial   Tant
« Previous Dia
SegĂźent Dia »
Diari Setmana Mensual Anual Personalitzada
  Maxima: Minima: Media:
Temperatura: 25.8 °C 12.8 °C 18.5 °C
Punt de rosada: 12.2 °C 9.2 °C 10.6 °C
Humitat: 79 % 40 % 61 %
Wind Speed: 16.1 km/h 0.0 km/h 5.3 km/h
RĂ fegues de vent: 24.1 km/h - -
Vent:- - ESE
Pression baro: 1021.9 hPa 1016.8 hPa -
Precipitacions: 0.0 mm    
Historical Graphs
 
 
Dades de taula per May 15, 2016
Temps Temperatura Punt de rosada Pression baro Vent Wind Speed RĂ fegues de vent Humitat Rainfall Rate (Hourly)
00:03 14.8 °C 9.8 °C 1016.8 hPa WSW 1.9 km/h   72 % 0.0 mm
00:08 14.8 °C 10.0 °C 1016.8 hPa Calm     73 % 0.0 mm
00:14 14.9 °C 9.9 °C 1016.8 hPa West 1.9 km/h   72 % 0.0 mm
00:19 14.9 °C 10.1 °C 1016.8 hPa Calm     73 % 0.0 mm
00:24 14.8 °C 9.6 °C 1016.8 hPa SW 3.7 km/h 3.7 km/h 71 % 0.0 mm
00:29 14.5 °C 9.5 °C 1016.8 hPa SW 3.7 km/h   72 % 0.0 mm
00:34 14.3 °C 9.5 °C 1016.8 hPa SW 3.7 km/h 3.7 km/h 73 % 0.0 mm
00:39 14.3 °C 9.5 °C 1017.8 hPa SW 3.7 km/h 3.7 km/h 73 % 0.0 mm
00:44 14.3 °C 9.9 °C 1017.8 hPa Calm     75 % 0.0 mm
00:49 14.3 °C 9.9 °C 1017.8 hPa ESE 2.3 km/h 2.3 km/h 75 % 0.0 mm
00:54 14.4 °C 10.0 °C 1017.8 hPa ENE 3.7 km/h 3.7 km/h 75 % 0.0 mm
00:59 14.5 °C 10.1 °C 1017.8 hPa ENE 1.9 km/h 1.9 km/h 75 % 0.0 mm
01:04 14.5 °C 10.1 °C 1017.8 hPa ENE 2.6 km/h 2.6 km/h 75 % 0.0 mm
01:09 14.6 °C 10.2 °C 1017.8 hPa NE 2.3 km/h 2.3 km/h 75 % 0.0 mm
01:14 14.6 °C 10.2 °C 1017.8 hPa ENE 1.9 km/h 1.9 km/h 75 % 0.0 mm
01:55 12.8 °C 9.2 °C 1018.8 hPa ENE 1.6 km/h 4.8 km/h 79 % 0.0 mm
02:05 12.8 °C 9.2 °C 1018.8 hPa NE 1.6 km/h 3.2 km/h 79 % 0.0 mm
02:15 12.9 °C 9.3 °C 1018.8 hPa Calm   3.2 km/h 79 % 0.0 mm
02:25 13.0 °C 9.3 °C 1018.8 hPa Calm   3.2 km/h 78 % 0.0 mm
02:35 13.2 °C 9.4 °C 1018.8 hPa Calm   3.2 km/h 78 % 0.0 mm
02:45 13.5 °C 9.7 °C 1018.8 hPa Calm   4.8 km/h 78 % 0.0 mm
02:55 13.8 °C 9.8 °C 1018.8 hPa Calm   3.2 km/h 77 % 0.0 mm
03:05 14.1 °C 9.9 °C 1018.8 hPa NNE 1.6 km/h 3.2 km/h 76 % 0.0 mm
03:15 14.3 °C 10.1 °C 1018.8 hPa NE 3.2 km/h 4.8 km/h 76 % 0.0 mm
03:25 14.5 °C 10.1 °C 1018.8 hPa ENE 4.8 km/h 9.7 km/h 75 % 0.0 mm
03:35 15.0 °C 10.2 °C 1018.8 hPa NE 3.2 km/h 4.8 km/h 73 % 0.0 mm
03:45 14.9 °C 10.1 °C 1018.8 hPa NE 3.2 km/h 6.4 km/h 73 % 0.0 mm
04:05 15.7 °C 10.4 °C 1019.9 hPa NE 1.6 km/h 6.4 km/h 71 % 0.0 mm
04:15 15.9 °C 10.4 °C 1019.9 hPa NE 3.2 km/h 4.8 km/h 70 % 0.0 mm
04:25 16.0 °C 10.3 °C 1019.9 hPa NE 4.8 km/h 6.4 km/h 69 % 0.0 mm
04:35 16.6 °C 10.9 °C 1019.9 hPa NE 3.2 km/h 6.4 km/h 69 % 0.0 mm
04:45 16.8 °C 10.8 °C 1019.9 hPa NE 3.2 km/h 6.4 km/h 68 % 0.0 mm
04:55 16.9 °C 10.7 °C 1019.9 hPa NE 4.8 km/h 6.4 km/h 67 % 0.0 mm
05:05 17.7 °C 11.3 °C 1019.9 hPa NE 1.6 km/h 4.8 km/h 66 % 0.0 mm
05:15 18.1 °C 11.2 °C 1019.9 hPa ENE 3.2 km/h 4.8 km/h 64 % 0.0 mm
05:25 18.4 °C 11.4 °C 1018.8 hPa ENE 3.2 km/h 4.8 km/h 64 % 0.0 mm
05:35 18.9 °C 11.9 °C 1018.8 hPa ENE 3.2 km/h 6.4 km/h 64 % 0.0 mm
05:45 18.8 °C 11.6 °C 1019.9 hPa ENE 8.0 km/h 8.0 km/h 63 % 0.0 mm
05:55 18.6 °C 11.4 °C 1018.8 hPa ENE 3.2 km/h 6.4 km/h 63 % 0.0 mm
06:05 19.2 °C 11.5 °C 1018.8 hPa ENE 4.8 km/h 8.0 km/h 61 % 0.0 mm
06:15 19.5 °C 11.3 °C 1019.9 hPa East 4.8 km/h 4.8 km/h 59 % 0.0 mm
06:25 20.5 °C 11.9 °C 1018.8 hPa East 4.8 km/h 6.4 km/h 58 % 0.0 mm
06:35 20.5 °C 11.4 °C 1018.8 hPa SE 4.8 km/h 6.4 km/h 56 % 0.0 mm
06:45 21.4 °C 10.8 °C 1018.8 hPa SSW 9.7 km/h 9.7 km/h 51 % 0.0 mm
06:55 21.8 °C 10.3 °C 1018.8 hPa WSW 4.8 km/h 8.0 km/h 48 % 0.0 mm
07:05 22.5 °C 10.6 °C 1018.8 hPa West 4.8 km/h 9.7 km/h 47 % 0.0 mm
07:15 22.8 °C 10.9 °C 1018.8 hPa SW 3.2 km/h 8.0 km/h 47 % 0.0 mm
07:25 22.7 °C 10.2 °C 1018.8 hPa SW 4.8 km/h 12.9 km/h 45 % 0.0 mm
07:35 23.1 °C 9.8 °C 1018.8 hPa SW 8.0 km/h 9.7 km/h 43 % 0.0 mm
07:55 23.8 °C 10.4 °C 1018.8 hPa WSW 4.8 km/h 6.4 km/h 43 % 0.0 mm
08:05 24.1 °C 10.7 °C 1018.8 hPa WNW 4.8 km/h 6.4 km/h 43 % 0.0 mm
08:15 24.7 °C 11.3 °C 1018.8 hPa SW 4.8 km/h 6.4 km/h 43 % 0.0 mm
08:25 24.4 °C 11.0 °C 1018.8 hPa WSW 3.2 km/h 9.7 km/h 43 % 0.0 mm
08:35 24.0 °C 10.3 °C 1018.8 hPa NW 3.2 km/h 6.4 km/h 42 % 0.0 mm
08:45 23.5 °C 9.8 °C 1017.8 hPa NNW 1.6 km/h 6.4 km/h 42 % 0.0 mm
08:55 22.9 °C 10.0 °C 1018.8 hPa East 4.8 km/h 11.3 km/h 44 % 0.0 mm
09:05 22.7 °C 10.2 °C 1018.8 hPa East 8.0 km/h 9.7 km/h 45 % 0.0 mm
09:15 22.7 °C 10.2 °C 1016.8 hPa East 11.3 km/h 12.9 km/h 45 % 0.0 mm
09:25 22.6 °C 10.4 °C 1017.8 hPa East 8.0 km/h 20.9 km/h 46 % 0.0 mm
09:35 22.9 °C 10.7 °C 1017.8 hPa East 11.3 km/h 11.3 km/h 46 % 0.0 mm
09:45 22.9 °C 11.0 °C 1017.8 hPa ENE 12.9 km/h 12.9 km/h 47 % 0.0 mm
09:55 22.7 °C 10.8 °C 1017.8 hPa East 9.7 km/h 19.3 km/h 47 % 0.0 mm
10:05 22.6 °C 10.7 °C 1017.8 hPa ESE 11.3 km/h 11.3 km/h 47 % 0.0 mm
10:15 24.0 °C 11.7 °C 1017.8 hPa SE 4.8 km/h 6.4 km/h 46 % 0.0 mm
10:25 23.9 °C 11.6 °C 1017.8 hPa SSE 8.0 km/h 9.7 km/h 46 % 0.0 mm
10:35 24.2 °C 11.8 °C 1017.8 hPa SSE 3.2 km/h 11.3 km/h 46 % 0.0 mm
10:45 25.3 °C 12.2 °C 1016.8 hPa SSW 8.0 km/h 8.0 km/h 44 % 0.0 mm
10:55 25.0 °C 11.6 °C 1017.8 hPa SSW 8.0 km/h 9.7 km/h 43 % 0.0 mm
11:05 25.0 °C 11.2 °C 1017.8 hPa SW 8.0 km/h 9.7 km/h 42 % 0.0 mm
11:15 25.7 °C 11.4 °C 1017.8 hPa WSW 8.0 km/h 8.0 km/h 41 % 0.0 mm
11:25 25.8 °C 11.6 °C 1016.8 hPa SW 1.6 km/h 16.1 km/h 41 % 0.0 mm
11:35 25.8 °C 11.6 °C 1016.8 hPa SSW 1.6 km/h 6.4 km/h 41 % 0.0 mm
11:45 24.7 °C 10.2 °C 1017.8 hPa SW 8.0 km/h 9.7 km/h 40 % 0.0 mm
11:55 23.7 °C 10.7 °C 1017.8 hPa ENE 9.7 km/h 9.7 km/h 44 % 0.0 mm
12:05 23.4 °C 10.8 °C 1017.8 hPa East 11.3 km/h 11.3 km/h 45 % 0.0 mm
12:15 23.0 °C 10.8 °C 1017.8 hPa East 9.7 km/h 16.1 km/h 46 % 0.0 mm
12:25 22.7 °C 11.1 °C 1017.8 hPa East 9.7 km/h 17.7 km/h 48 % 0.0 mm
12:35 22.4 °C 10.8 °C 1017.8 hPa East 11.3 km/h 16.1 km/h 48 % 0.0 mm
12:45 22.1 °C 10.6 °C 1017.8 hPa ENE 14.5 km/h 14.5 km/h 48 % 0.0 mm
12:55 21.9 °C 10.7 °C 1017.8 hPa East 11.3 km/h 17.7 km/h 49 % 0.0 mm
13:05 21.6 °C 10.4 °C 1017.8 hPa ESE 12.9 km/h 19.3 km/h 49 % 0.0 mm
13:15 21.1 °C 10.3 °C 1016.8 hPa ESE 16.1 km/h 16.1 km/h 50 % 0.0 mm
13:25 20.6 °C 10.1 °C 1017.8 hPa ESE 12.9 km/h 24.1 km/h 51 % 0.0 mm
13:35 20.6 °C 10.4 °C 1017.8 hPa ESE 11.3 km/h 12.9 km/h 52 % 0.0 mm
13:45 20.1 °C 9.9 °C 1017.8 hPa ESE 12.9 km/h 20.9 km/h 52 % 0.0 mm
13:55 19.8 °C 9.9 °C 1018.8 hPa East 11.3 km/h 19.3 km/h 53 % 0.0 mm
14:05 19.6 °C 9.8 °C 1018.8 hPa East 9.7 km/h 17.7 km/h 53 % 0.0 mm
14:15 19.4 °C 9.8 °C 1017.8 hPa East 9.7 km/h 19.3 km/h 54 % 0.0 mm
14:25 19.3 °C 9.8 °C 1017.8 hPa East 9.7 km/h 12.9 km/h 54 % 0.0 mm
14:35 19.1 °C 9.8 °C 1017.8 hPa East 11.3 km/h 17.7 km/h 55 % 0.0 mm
14:45 19.1 °C 10.1 °C 1018.8 hPa East 9.7 km/h 12.9 km/h 56 % 0.0 mm
14:55 18.9 °C 10.4 °C 1018.8 hPa East 11.3 km/h 16.1 km/h 58 % 0.0 mm
15:05 18.6 °C 10.4 °C 1018.8 hPa East 8.0 km/h 14.5 km/h 59 % 0.0 mm
15:15 18.5 °C 10.3 °C 1018.8 hPa East 4.8 km/h 11.3 km/h 59 % 0.0 mm
15:25 18.3 °C 10.4 °C 1018.8 hPa ESE 4.8 km/h 12.9 km/h 60 % 0.0 mm
15:35 18.2 °C 10.6 °C 1018.8 hPa ESE 4.8 km/h 9.7 km/h 61 % 0.0 mm
15:45 18.0 °C 10.6 °C 1018.8 hPa East 4.8 km/h 12.9 km/h 62 % 0.0 mm
15:55 17.9 °C 10.5 °C 1018.8 hPa East 3.2 km/h 8.0 km/h 62 % 0.0 mm
19:45 15.9 °C 10.8 °C 1021.9 hPa ESE 4.8 km/h 9.7 km/h 72 % 0.0 mm
19:55 16.0 °C 11.2 °C 1021.9 hPa ESE 3.2 km/h 9.7 km/h 73 % 0.0 mm
20:05 16.0 °C 11.2 °C 1021.9 hPa Calm   3.2 km/h 73 % 0.0 mm
20:25 16.0 °C 11.2 °C 1021.9 hPa Calm     73 % 0.0 mm
20:35 15.9 °C 11.1 °C 1021.9 hPa Calm     73 % 0.0 mm
20:45 15.9 °C 11.3 °C 1021.9 hPa Calm     74 % 0.0 mm
20:59 17.7 °C 10.6 °C 1018.8 hPa NE 9.3 km/h 9.3 km/h 63 % 0.0 mm
21:04 17.7 °C 10.6 °C 1018.8 hPa ESE 7.4 km/h 7.4 km/h 63 % 0.0 mm
21:05 15.4 °C 10.8 °C 1021.9 hPa Calm     74 % 0.0 mm
21:09 17.6 °C 10.4 °C 1019.9 hPa East 10.0 km/h 10.0 km/h 63 % 0.0 mm
21:14 17.5 °C 10.4 °C 1019.9 hPa East 10.0 km/h 10.0 km/h 63 % 0.0 mm
21:15 15.4 °C 11.0 °C 1021.9 hPa Calm     75 % 0.0 mm
21:20 17.5 °C 10.4 °C 1019.9 hPa East 5.6 km/h 5.8 km/h 63 % 0.0 mm
21:25 17.5 °C 10.4 °C 1019.9 hPa East 4.8 km/h 4.8 km/h 63 % 0.0 mm
21:30 17.4 °C 10.5 °C 1019.9 hPa East 5.6 km/h 5.8 km/h 64 % 0.0 mm
21:35 17.4 °C 10.5 °C 1019.9 hPa East 4.8 km/h 4.8 km/h 64 % 0.0 mm
21:40 17.4 °C 10.5 °C 1018.8 hPa East 4.8 km/h 4.8 km/h 64 % 0.0 mm
21:45 17.3 °C 10.4 °C 1018.8 hPa East 4.8 km/h 4.8 km/h 64 % 0.0 mm
21:50 17.3 °C 10.4 °C 1018.8 hPa East 4.8 km/h 4.8 km/h 64 % 0.0 mm
21:55 17.3 °C 10.7 °C 1019.9 hPa East 4.8 km/h 4.8 km/h 65 % 0.0 mm
22:00 17.3 °C 10.7 °C 1019.9 hPa East 4.8 km/h 4.8 km/h 65 % 0.0 mm
22:05 15.1 °C 10.9 °C 1021.9 hPa Calm     76 % 0.0 mm
22:10 17.3 °C 10.7 °C 1019.9 hPa East 4.8 km/h 4.8 km/h 65 % 0.0 mm
22:15 17.3 °C 10.7 °C 1019.9 hPa East 4.8 km/h 4.8 km/h 65 % 0.0 mm
22:20 17.3 °C 10.7 °C 1019.9 hPa East 4.8 km/h 4.8 km/h 65 % 0.0 mm
22:25 17.3 °C 10.7 °C 1019.9 hPa East 4.8 km/h 4.8 km/h 65 % 0.0 mm
22:30 17.2 °C 10.8 °C 1019.9 hPa East 4.8 km/h 4.8 km/h 66 % 0.0 mm
22:35 17.2 °C 10.8 °C 1019.9 hPa East 4.8 km/h 4.8 km/h 66 % 0.0 mm
22:40 17.1 °C 10.7 °C 1019.9 hPa East 4.8 km/h 4.8 km/h 66 % 0.0 mm
22:45 17.1 °C 10.7 °C 1019.9 hPa East 5.6 km/h 5.8 km/h 66 % 0.0 mm
22:50 17.0 °C 10.6 °C 1019.9 hPa East 5.6 km/h 5.8 km/h 66 % 0.0 mm
22:55 16.9 °C 10.7 °C 1019.9 hPa East 4.8 km/h 4.8 km/h 67 % 0.0 mm
23:00 16.8 °C 10.9 °C 1019.9 hPa East 4.8 km/h 4.8 km/h 68 % 0.0 mm
23:05 16.8 °C 10.8 °C 1019.9 hPa East 4.8 km/h 4.8 km/h 68 % 0.0 mm
23:10 16.7 °C 10.8 °C 1019.9 hPa East 4.8 km/h 4.8 km/h 68 % 0.0 mm
23:15 16.6 °C 10.7 °C 1019.9 hPa East 4.8 km/h 4.8 km/h 68 % 0.0 mm
23:20 16.6 °C 10.7 °C 1019.9 hPa East 4.8 km/h 4.8 km/h 68 % 0.0 mm
23:25 16.5 °C 10.8 °C 1020.9 hPa East 4.8 km/h 4.8 km/h 69 % 0.0 mm
23:30 16.4 °C 10.7 °C 1020.9 hPa East 4.8 km/h 4.8 km/h 69 % 0.0 mm
23:35 16.4 °C 10.7 °C 1020.9 hPa East 5.6 km/h 5.8 km/h 69 % 0.0 mm
23:40 16.3 °C 10.6 °C 1020.9 hPa East 5.6 km/h 5.8 km/h 69 % 0.0 mm
23:45 16.3 °C 10.8 °C 1020.9 hPa East 5.6 km/h 5.8 km/h 70 % 0.0 mm
23:50 16.2 °C 10.7 °C 1020.9 hPa East 5.6 km/h 5.8 km/h 70 % 0.0 mm
23:55 16.2 °C 10.7 °C 1020.9 hPa East 5.6 km/h 5.8 km/h 70 % 0.0 mm
Meteo Sesrovires
Elogis d' Weather Underground - 3.25 mb

Guio original per  Jim McMurry - jmcmurry@mwt.net Adaptat per a la plantilla per  Wim van der Kuil - Leuven-Template.eu

Trobareu la nostra informacio del temps tambe a:

Weather Underground

AWEKAS